sensor_id;sensor_type;location;lat;lon;timestamp;P1;P2;P0
47810;PMS5003;33575;52.600;7.318;2023-05-10T00:00:43;9;9;
47810;PMS5003;33575;52.600;7.318;2023-05-10T00:03:13;11;11;
47810;PMS5003;33575;52.600;7.318;2023-05-10T00:05:43;12;12;
47810;PMS5003;33575;52.600;7.318;2023-05-10T00:08:13;15;15;
47810;PMS5003;33575;52.600;7.318;2023-05-10T00:10:44;13;13;
47810;PMS5003;33575;52.600;7.318;2023-05-10T00:13:14;10;10;
47810;PMS5003;33575;52.600;7.318;2023-05-10T00:15:44;14;12;
47810;PMS5003;33575;52.600;7.318;2023-05-10T00:18:14;16;13;
47810;PMS5003;33575;52.600;7.318;2023-05-10T00:20:45;11;11;
47810;PMS5003;33575;52.600;7.318;2023-05-10T00:23:15;14;13;
47810;PMS5003;33575;52.600;7.318;2023-05-10T00:25:45;14;14;
47810;PMS5003;33575;52.600;7.318;2023-05-10T00:28:16;13;13;
47810;PMS5003;33575;52.600;7.318;2023-05-10T00:30:46;14;14;
47810;PMS5003;33575;52.600;7.318;2023-05-10T00:33:16;11;11;
47810;PMS5003;33575;52.600;7.318;2023-05-10T00:35:47;13;13;
47810;PMS5003;33575;52.600;7.318;2023-05-10T00:38:17;12;11;
47810;PMS5003;33575;52.600;7.318;2023-05-10T00:40:47;13;12;
47810;PMS5003;33575;52.600;7.318;2023-05-10T00:43:18;14;13;
47810;PMS5003;33575;52.600;7.318;2023-05-10T00:45:48;11;11;
47810;PMS5003;33575;52.600;7.318;2023-05-10T00:48:18;14;13;
47810;PMS5003;33575;52.600;7.318;2023-05-10T00:50:49;11;11;
47810;PMS5003;33575;52.600;7.318;2023-05-10T00:53:19;11;10;
47810;PMS5003;33575;52.600;7.318;2023-05-10T00:55:49;13;13;
47810;PMS5003;33575;52.600;7.318;2023-05-10T00:58:20;12;11;
47810;PMS5003;33575;52.600;7.318;2023-05-10T01:00:50;12;11;
47810;PMS5003;33575;52.600;7.318;2023-05-10T01:03:20;11;10;
47810;PMS5003;33575;52.600;7.318;2023-05-10T01:05:51;9;9;
47810;PMS5003;33575;52.600;7.318;2023-05-10T01:08:21;8;7;
47810;PMS5003;33575;52.600;7.318;2023-05-10T01:10:51;8;8;
47810;PMS5003;33575;52.600;7.318;2023-05-10T01:13:26;7;7;
47810;PMS5003;33575;52.600;7.318;2023-05-10T01:15:52;9;8;
47810;PMS5003;33575;52.600;7.318;2023-05-10T01:18:23;7;7;
47810;PMS5003;33575;52.600;7.318;2023-05-10T01:20:55;7;7;
47810;PMS5003;33575;52.600;7.318;2023-05-10T01:23:30;8;8;
47810;PMS5003;33575;52.600;7.318;2023-05-10T01:26:03;10;10;
47810;PMS5003;33575;52.600;7.318;2023-05-10T01:33:26;16;15;
47810;PMS5003;33575;52.600;7.318;2023-05-10T01:35:58;17;15;
47810;PMS5003;33575;52.600;7.318;2023-05-10T01:38:27;10;10;
47810;PMS5003;33575;52.600;7.318;2023-05-10T01:40:59;14;14;
47810;PMS5003;33575;52.600;7.318;2023-05-10T01:43:28;16;16;
47810;PMS5003;33575;52.600;7.318;2023-05-10T01:45:59;14;14;
47810;PMS5003;33575;52.600;7.318;2023-05-10T01:48:27;13;12;
47810;PMS5003;33575;52.600;7.318;2023-05-10T01:50:58;15;15;
47810;PMS5003;33575;52.600;7.318;2023-05-10T01:53:28;16;14;
47810;PMS5003;33575;52.600;7.318;2023-05-10T01:55:59;13;13;
47810;PMS5003;33575;52.600;7.318;2023-05-10T01:58:30;17;16;
47810;PMS5003;33575;52.600;7.318;2023-05-10T02:01:00;16;16;
47810;PMS5003;33575;52.600;7.318;2023-05-10T02:03:30;16;14;
47810;PMS5003;33575;52.600;7.318;2023-05-10T02:06:00;16;15;
47810;PMS5003;33575;52.600;7.318;2023-05-10T02:08:30;22;18;
47810;PMS5003;33575;52.600;7.318;2023-05-10T02:11:01;20;20;
47810;PMS5003;33575;52.600;7.318;2023-05-10T02:13:31;17;17;
47810;PMS5003;33575;52.600;7.318;2023-05-10T02:16:01;21;21;
47810;PMS5003;33575;52.600;7.318;2023-05-10T02:18:32;19;16;
47810;PMS5003;33575;52.600;7.318;2023-05-10T02:21:03;16;16;
47810;PMS5003;33575;52.600;7.318;2023-05-10T02:23:33;17;17;
47810;PMS5003;33575;52.600;7.318;2023-05-10T02:26:04;20;17;
47810;PMS5003;33575;52.600;7.318;2023-05-10T02:28:34;21;20;
47810;PMS5003;33575;52.600;7.318;2023-05-10T02:31:05;19;18;
47810;PMS5003;33575;52.600;7.318;2023-05-10T02:33:34;22;21;
47810;PMS5003;33575;52.600;7.318;2023-05-10T02:36:05;20;18;
47810;PMS5003;33575;52.600;7.318;2023-05-10T02:38:35;17;17;
47810;PMS5003;33575;52.600;7.318;2023-05-10T02:41:05;20;19;
47810;PMS5003;33575;52.600;7.318;2023-05-10T02:43:35;22;21;
47810;PMS5003;33575;52.600;7.318;2023-05-10T02:46:05;16;16;
47810;PMS5003;33575;52.600;7.318;2023-05-10T02:48:35;18;17;
47810;PMS5003;33575;52.600;7.318;2023-05-10T02:51:06;19;19;
47810;PMS5003;33575;52.600;7.318;2023-05-10T02:53:36;16;16;
47810;PMS5003;33575;52.600;7.318;2023-05-10T02:56:09;21;19;
47810;PMS5003;33575;52.600;7.318;2023-05-10T02:58:36;18;18;
47810;PMS5003;33575;52.600;7.318;2023-05-10T03:01:07;22;21;
47810;PMS5003;33575;52.600;7.318;2023-05-10T03:03:37;19;19;
47810;PMS5003;33575;52.600;7.318;2023-05-10T03:06:08;21;18;
47810;PMS5003;33575;52.600;7.318;2023-05-10T03:08:38;23;21;
47810;PMS5003;33575;52.600;7.318;2023-05-10T03:11:14;21;20;
47810;PMS5003;33575;52.600;7.318;2023-05-10T03:13:40;17;17;
47810;PMS5003;33575;52.600;7.318;2023-05-10T03:16:10;16;16;
47810;PMS5003;33575;52.600;7.318;2023-05-10T03:18:41;18;17;
47810;PMS5003;33575;52.600;7.318;2023-05-10T03:21:10;18;18;
47810;PMS5003;33575;52.600;7.318;2023-05-10T03:23:40;20;18;
47810;PMS5003;33575;52.600;7.318;2023-05-10T03:26:09;18;16;
47810;PMS5003;33575;52.600;7.318;2023-05-10T03:28:39;18;17;
47810;PMS5003;33575;52.600;7.318;2023-05-10T03:31:10;19;19;
47810;PMS5003;33575;52.600;7.318;2023-05-10T03:36:10;19;18;
47810;PMS5003;33575;52.600;7.318;2023-05-10T03:38:40;18;18;
47810;PMS5003;33575;52.600;7.318;2023-05-10T03:41:11;19;16;
47810;PMS5003;33575;52.600;7.318;2023-05-10T03:43:41;16;16;
47810;PMS5003;33575;52.600;7.318;2023-05-10T03:46:12;17;17;
47810;PMS5003;33575;52.600;7.318;2023-05-10T03:48:41;17;17;
47810;PMS5003;33575;52.600;7.318;2023-05-10T03:51:12;16;16;
47810;PMS5003;33575;52.600;7.318;2023-05-10T03:53:42;17;17;
47810;PMS5003;33575;52.600;7.318;2023-05-10T03:56:13;24;22;
47810;PMS5003;33575;52.600;7.318;2023-05-10T03:58:43;22;21;
47810;PMS5003;33575;52.600;7.318;2023-05-10T04:01:13;17;16;
47810;PMS5003;33575;52.600;7.318;2023-05-10T04:03:44;18;17;
47810;PMS5003;33575;52.600;7.318;2023-05-10T04:06:14;17;16;
47810;PMS5003;33575;52.600;7.318;2023-05-10T04:08:44;17;16;
47810;PMS5003;33575;52.600;7.318;2023-05-10T04:11:15;19;18;
47810;PMS5003;33575;52.600;7.318;2023-05-10T04:13:45;16;15;
47810;PMS5003;33575;52.600;7.318;2023-05-10T04:16:16;16;15;
47810;PMS5003;33575;52.600;7.318;2023-05-10T04:18:46;17;16;
47810;PMS5003;33575;52.600;7.318;2023-05-10T04:21:16;18;16;
47810;PMS5003;33575;52.600;7.318;2023-05-10T04:23:47;16;16;
47810;PMS5003;33575;52.600;7.318;2023-05-10T04:26:17;20;18;
47810;PMS5003;33575;52.600;7.318;2023-05-10T04:28:47;20;19;
47810;PMS5003;33575;52.600;7.318;2023-05-10T04:31:17;17;16;
47810;PMS5003;33575;52.600;7.318;2023-05-10T04:33:47;16;16;
47810;PMS5003;33575;52.600;7.318;2023-05-10T04:36:18;19;17;
47810;PMS5003;33575;52.600;7.318;2023-05-10T04:38:48;17;16;
47810;PMS5003;33575;52.600;7.318;2023-05-10T04:41:19;17;16;
47810;PMS5003;33575;52.600;7.318;2023-05-10T04:43:49;16;16;
47810;PMS5003;33575;52.600;7.318;2023-05-10T04:46:19;19;18;
47810;PMS5003;33575;52.600;7.318;2023-05-10T04:48:50;17;15;
47810;PMS5003;33575;52.600;7.318;2023-05-10T04:51:20;15;15;
47810;PMS5003;33575;52.600;7.318;2023-05-10T04:53:55;18;17;
47810;PMS5003;33575;52.600;7.318;2023-05-10T04:56:21;18;17;
47810;PMS5003;33575;52.600;7.318;2023-05-10T04:58:51;29;29;
47810;PMS5003;33575;52.600;7.318;2023-05-10T05:01:22;16;15;
47810;PMS5003;33575;52.600;7.318;2023-05-10T05:03:52;17;17;
47810;PMS5003;33575;52.600;7.318;2023-05-10T05:06:23;18;17;
47810;PMS5003;33575;52.600;7.318;2023-05-10T05:08:53;14;14;
47810;PMS5003;33575;52.600;7.318;2023-05-10T05:11:23;13;12;
47810;PMS5003;33575;52.600;7.318;2023-05-10T05:13:54;16;16;
47810;PMS5003;33575;52.600;7.318;2023-05-10T05:16:24;15;14;
47810;PMS5003;33575;52.600;7.318;2023-05-10T05:18:55;17;16;
47810;PMS5003;33575;52.600;7.318;2023-05-10T05:21:25;14;13;
47810;PMS5003;33575;52.600;7.318;2023-05-10T05:23:55;16;15;
47810;PMS5003;33575;52.600;7.318;2023-05-10T05:26:26;14;14;
47810;PMS5003;33575;52.600;7.318;2023-05-10T05:28:56;15;15;
47810;PMS5003;33575;52.600;7.318;2023-05-10T05:31:27;12;12;
47810;PMS5003;33575;52.600;7.318;2023-05-10T05:33:57;12;12;
47810;PMS5003;33575;52.600;7.318;2023-05-10T05:36:27;16;15;
47810;PMS5003;33575;52.600;7.318;2023-05-10T05:38:58;9;9;
47810;PMS5003;33575;52.600;7.318;2023-05-10T05:41:28;19;18;
47810;PMS5003;33575;52.600;7.318;2023-05-10T05:43:58;10;10;
47810;PMS5003;33575;52.600;7.318;2023-05-10T05:46:29;15;15;
47810;PMS5003;33575;52.600;7.318;2023-05-10T05:48:59;14;11;
47810;PMS5003;33575;52.600;7.318;2023-05-10T05:51:29;14;13;
47810;PMS5003;33575;52.600;7.318;2023-05-10T05:53:59;16;15;
47810;PMS5003;33575;52.600;7.318;2023-05-10T05:56:30;14;13;
47810;PMS5003;33575;52.600;7.318;2023-05-10T05:59:00;16;16;
47810;PMS5003;33575;52.600;7.318;2023-05-10T06:01:30;12;12;
47810;PMS5003;33575;52.600;7.318;2023-05-10T06:04:01;13;11;
47810;PMS5003;33575;52.600;7.318;2023-05-10T06:06:31;12;12;
47810;PMS5003;33575;52.600;7.318;2023-05-10T06:09:01;15;15;
47810;PMS5003;33575;52.600;7.318;2023-05-10T06:11:32;14;13;
47810;PMS5003;33575;52.600;7.318;2023-05-10T06:14:02;11;10;
47810;PMS5003;33575;52.600;7.318;2023-05-10T06:16:32;17;16;
47810;PMS5003;33575;52.600;7.318;2023-05-10T06:19:02;19;17;
47810;PMS5003;33575;52.600;7.318;2023-05-10T06:21:33;17;17;
47810;PMS5003;33575;52.600;7.318;2023-05-10T06:24:04;19;16;
47810;PMS5003;33575;52.600;7.318;2023-05-10T06:26:34;17;17;
47810;PMS5003;33575;52.600;7.318;2023-05-10T06:29:05;20;20;
47810;PMS5003;33575;52.600;7.318;2023-05-10T06:31:35;17;15;
47810;PMS5003;33575;52.600;7.318;2023-05-10T06:34:05;18;16;
47810;PMS5003;33575;52.600;7.318;2023-05-10T06:36:35;21;19;
47810;PMS5003;33575;52.600;7.318;2023-05-10T06:39:05;22;20;
47810;PMS5003;33575;52.600;7.318;2023-05-10T06:41:36;18;17;
47810;PMS5003;33575;52.600;7.318;2023-05-10T06:44:06;15;15;
47810;PMS5003;33575;52.600;7.318;2023-05-10T06:46:37;20;19;
47810;PMS5003;33575;52.600;7.318;2023-05-10T06:49:07;16;14;
47810;PMS5003;33575;52.600;7.318;2023-05-10T06:51:37;21;17;
47810;PMS5003;33575;52.600;7.318;2023-05-10T06:54:08;18;18;
47810;PMS5003;33575;52.600;7.318;2023-05-10T06:56:38;20;18;
47810;PMS5003;33575;52.600;7.318;2023-05-10T06:59:09;16;15;
47810;PMS5003;33575;52.600;7.318;2023-05-10T07:01:39;21;19;
47810;PMS5003;33575;52.600;7.318;2023-05-10T07:04:10;14;14;
47810;PMS5003;33575;52.600;7.318;2023-05-10T07:06:40;16;15;
47810;PMS5003;33575;52.600;7.318;2023-05-10T07:09:10;20;18;
47810;PMS5003;33575;52.600;7.318;2023-05-10T07:11:41;21;18;
47810;PMS5003;33575;52.600;7.318;2023-05-10T07:14:11;15;14;
47810;PMS5003;33575;52.600;7.318;2023-05-10T07:16:42;14;14;
47810;PMS5003;33575;52.600;7.318;2023-05-10T07:19:12;16;15;
47810;PMS5003;33575;52.600;7.318;2023-05-10T07:21:42;16;15;
47810;PMS5003;33575;52.600;7.318;2023-05-10T07:24:13;24;19;
47810;PMS5003;33575;52.600;7.318;2023-05-10T07:26:43;17;16;
47810;PMS5003;33575;52.600;7.318;2023-05-10T07:29:13;18;17;
47810;PMS5003;33575;52.600;7.318;2023-05-10T07:31:44;16;15;
47810;PMS5003;33575;52.600;7.318;2023-05-10T07:34:14;16;15;
47810;PMS5003;33575;52.600;7.318;2023-05-10T07:36:45;20;18;
47810;PMS5003;33575;52.600;7.318;2023-05-10T07:39:20;19;18;
47810;PMS5003;33575;52.600;7.318;2023-05-10T07:41:45;16;16;
47810;PMS5003;33575;52.600;7.318;2023-05-10T07:44:15;18;18;
47810;PMS5003;33575;52.600;7.318;2023-05-10T07:46:46;17;14;
47810;PMS5003;33575;52.600;7.318;2023-05-10T07:49:17;24;22;
47810;PMS5003;33575;52.600;7.318;2023-05-10T07:51:47;17;17;
47810;PMS5003;33575;52.600;7.318;2023-05-10T07:54:17;16;15;
47810;PMS5003;33575;52.600;7.318;2023-05-10T07:56:48;17;17;
47810;PMS5003;33575;52.600;7.318;2023-05-10T07:59:18;19;18;
47810;PMS5003;33575;52.600;7.318;2023-05-10T08:01:48;17;17;
47810;PMS5003;33575;52.600;7.318;2023-05-10T08:04:18;18;17;
47810;PMS5003;33575;52.600;7.318;2023-05-10T08:06:49;14;14;
47810;PMS5003;33575;52.600;7.318;2023-05-10T08:09:19;14;13;
47810;PMS5003;33575;52.600;7.318;2023-05-10T08:11:50;18;17;
47810;PMS5003;33575;52.600;7.318;2023-05-10T08:14:20;15;14;
47810;PMS5003;33575;52.600;7.318;2023-05-10T08:16:51;13;11;
47810;PMS5003;33575;52.600;7.318;2023-05-10T08:19:21;16;14;
47810;PMS5003;33575;52.600;7.318;2023-05-10T08:21:51;14;13;
47810;PMS5003;33575;52.600;7.318;2023-05-10T08:24:22;11;11;
47810;PMS5003;33575;52.600;7.318;2023-05-10T08:26:52;14;12;
47810;PMS5003;33575;52.600;7.318;2023-05-10T08:29:22;14;10;
47810;PMS5003;33575;52.600;7.318;2023-05-10T08:31:53;14;10;
47810;PMS5003;33575;52.600;7.318;2023-05-10T08:34:23;10;8;
47810;PMS5003;33575;52.600;7.318;2023-05-10T08:36:53;11;10;
47810;PMS5003;33575;52.600;7.318;2023-05-10T08:39:28;9;9;
47810;PMS5003;33575;52.600;7.318;2023-05-10T08:41:54;7;7;
47810;PMS5003;33575;52.600;7.318;2023-05-10T08:44:24;9;9;
47810;PMS5003;33575;52.600;7.318;2023-05-10T08:46:55;10;9;
47810;PMS5003;33575;52.600;7.318;2023-05-10T08:49:25;10;9;
47810;PMS5003;33575;52.600;7.318;2023-05-10T08:51:55;8;7;
47810;PMS5003;33575;52.600;7.318;2023-05-10T08:54:26;7;7;
47810;PMS5003;33575;52.600;7.318;2023-05-10T08:56:56;10;8;
47810;PMS5003;33575;52.600;7.318;2023-05-10T08:59:26;10;10;
47810;PMS5003;33575;52.600;7.318;2023-05-10T09:01:57;8;7;
47810;PMS5003;33575;52.600;7.318;2023-05-10T09:04:27;10;9;
47810;PMS5003;33575;52.600;7.318;2023-05-10T09:06:57;11;11;
47810;PMS5003;33575;52.600;7.318;2023-05-10T09:09:28;9;8;
47810;PMS5003;33575;52.600;7.318;2023-05-10T09:11:58;6;6;
47810;PMS5003;33575;52.600;7.318;2023-05-10T09:14:28;9;8;
47810;PMS5003;33575;52.600;7.318;2023-05-10T09:16:59;6;6;
47810;PMS5003;33575;52.600;7.318;2023-05-10T09:19:29;8;8;
47810;PMS5003;33575;52.600;7.318;2023-05-10T09:21:59;9;8;
47810;PMS5003;33575;52.600;7.318;2023-05-10T09:24:30;7;6;
47810;PMS5003;33575;52.600;7.318;2023-05-10T09:27:01;7;6;
47810;PMS5003;33575;52.600;7.318;2023-05-10T09:32:01;11;9;
47810;PMS5003;33575;52.600;7.318;2023-05-10T09:34:31;7;7;
47810;PMS5003;33575;52.600;7.318;2023-05-10T09:37:01;10;9;
47810;PMS5003;33575;52.600;7.318;2023-05-10T09:39:32;7;6;
47810;PMS5003;33575;52.600;7.318;2023-05-10T09:42:02;9;9;
47810;PMS5003;33575;52.600;7.318;2023-05-10T09:44:32;9;6;
47810;PMS5003;33575;52.600;7.318;2023-05-10T09:47:02;6;6;
47810;PMS5003;33575;52.600;7.318;2023-05-10T09:49:33;6;6;
47810;PMS5003;33575;52.600;7.318;2023-05-10T09:52:03;9;7;
47810;PMS5003;33575;52.600;7.318;2023-05-10T09:54:34;6;6;
47810;PMS5003;33575;52.600;7.318;2023-05-10T09:57:04;6;6;
47810;PMS5003;33575;52.600;7.318;2023-05-10T09:59:34;7;6;
47810;PMS5003;33575;52.600;7.318;2023-05-10T10:02:05;7;7;
47810;PMS5003;33575;52.600;7.318;2023-05-10T10:04:38;8;8;
47810;PMS5003;33575;52.600;7.318;2023-05-10T10:07:05;7;6;
47810;PMS5003;33575;52.600;7.318;2023-05-10T10:09:35;6;6;
47810;PMS5003;33575;52.600;7.318;2023-05-10T10:12:06;8;7;
47810;PMS5003;33575;52.600;7.318;2023-05-10T10:14:36;7;7;
47810;PMS5003;33575;52.600;7.318;2023-05-10T10:17:09;8;6;
47810;PMS5003;33575;52.600;7.318;2023-05-10T10:19:38;10;9;
47810;PMS5003;33575;52.600;7.318;2023-05-10T10:22:07;7;7;
47810;PMS5003;33575;52.600;7.318;2023-05-10T10:24:38;9;7;
47810;PMS5003;33575;52.600;7.318;2023-05-10T10:27:15;14;11;
47810;PMS5003;33575;52.600;7.318;2023-05-10T10:29:39;7;6;
47810;PMS5003;33575;52.600;7.318;2023-05-10T10:32:10;12;12;
47810;PMS5003;33575;52.600;7.318;2023-05-10T10:34:39;17;16;
47810;PMS5003;33575;52.600;7.318;2023-05-10T10:37:10;25;24;
47810;PMS5003;33575;52.600;7.318;2023-05-10T10:39:40;17;16;
47810;PMS5003;33575;52.600;7.318;2023-05-10T10:42:10;10;10;
47810;PMS5003;33575;52.600;7.318;2023-05-10T10:44:40;9;8;
47810;PMS5003;33575;52.600;7.318;2023-05-10T10:49:43;8;7;
47810;PMS5003;33575;52.600;7.318;2023-05-10T10:52:13;8;7;
47810;PMS5003;33575;52.600;7.318;2023-05-10T10:54:46;7;7;
47810;PMS5003;33575;52.600;7.318;2023-05-10T10:57:12;10;8;
47810;PMS5003;33575;52.600;7.318;2023-05-10T10:59:42;8;7;
47810;PMS5003;33575;52.600;7.318;2023-05-10T11:04:43;7;7;
47810;PMS5003;33575;52.600;7.318;2023-05-10T11:07:16;8;8;
47810;PMS5003;33575;52.600;7.318;2023-05-10T11:09:44;8;8;
47810;PMS5003;33575;52.600;7.318;2023-05-10T11:12:14;7;7;
47810;PMS5003;33575;52.600;7.318;2023-05-10T11:14:48;5;5;
47810;PMS5003;33575;52.600;7.318;2023-05-10T11:22:15;9;8;
47810;PMS5003;33575;52.600;7.318;2023-05-10T11:27:16;10;10;
47810;PMS5003;33575;52.600;7.318;2023-05-10T11:29:46;15;12;
47810;PMS5003;33575;52.600;7.318;2023-05-10T11:32:16;10;9;
47810;PMS5003;33575;52.600;7.318;2023-05-10T11:34:46;11;11;
47810;PMS5003;33575;52.600;7.318;2023-05-10T11:37:17;6;6;
47810;PMS5003;33575;52.600;7.318;2023-05-10T11:39:47;8;8;
47810;PMS5003;33575;52.600;7.318;2023-05-10T11:42:17;9;9;
47810;PMS5003;33575;52.600;7.318;2023-05-10T11:44:47;8;8;
47810;PMS5003;33575;52.600;7.318;2023-05-10T11:47:18;8;8;
47810;PMS5003;33575;52.600;7.318;2023-05-10T11:49:48;7;6;
47810;PMS5003;33575;52.600;7.318;2023-05-10T11:52:19;7;7;
47810;PMS5003;33575;52.600;7.318;2023-05-10T11:54:50;6;6;
47810;PMS5003;33575;52.600;7.318;2023-05-10T11:57:19;5;4;
47810;PMS5003;33575;52.600;7.318;2023-05-10T11:59:52;8;8;
47810;PMS5003;33575;52.600;7.318;2023-05-10T12:02:20;5;5;
47810;PMS5003;33575;52.600;7.318;2023-05-10T12:04:50;4;4;
47810;PMS5003;33575;52.600;7.318;2023-05-10T12:07:21;5;5;
47810;PMS5003;33575;52.600;7.318;2023-05-10T12:12:21;6;6;
47810;PMS5003;33575;52.600;7.318;2023-05-10T12:14:52;11;9;
47810;PMS5003;33575;52.600;7.318;2023-05-10T12:17:23;6;5;
47810;PMS5003;33575;52.600;7.318;2023-05-10T12:19:52;5;4;
47810;PMS5003;33575;52.600;7.318;2023-05-10T12:22:23;4;4;
47810;PMS5003;33575;52.600;7.318;2023-05-10T12:24:53;6;6;
47810;PMS5003;33575;52.600;7.318;2023-05-10T12:27:23;5;5;
47810;PMS5003;33575;52.600;7.318;2023-05-10T12:29:54;5;5;
47810;PMS5003;33575;52.600;7.318;2023-05-10T12:34:54;4;4;
47810;PMS5003;33575;52.600;7.318;2023-05-10T12:37:27;5;5;
47810;PMS5003;33575;52.600;7.318;2023-05-10T12:39:55;6;6;
47810;PMS5003;33575;52.600;7.318;2023-05-10T12:42:25;6;4;
47810;PMS5003;33575;52.600;7.318;2023-05-10T12:44:56;5;5;
47810;PMS5003;33575;52.600;7.318;2023-05-10T12:47:26;7;7;
47810;PMS5003;33575;52.600;7.318;2023-05-10T12:49:56;5;5;
47810;PMS5003;33575;52.600;7.318;2023-05-10T12:52:27;7;5;
47810;PMS5003;33575;52.600;7.318;2023-05-10T12:54:57;4;4;
47810;PMS5003;33575;52.600;7.318;2023-05-10T12:57:27;6;5;
47810;PMS5003;33575;52.600;7.318;2023-05-10T12:59:58;7;5;
47810;PMS5003;33575;52.600;7.318;2023-05-10T13:02:28;6;6;
47810;PMS5003;33575;52.600;7.318;2023-05-10T13:04:58;6;6;
47810;PMS5003;33575;52.600;7.318;2023-05-10T13:07:29;8;7;
47810;PMS5003;33575;52.600;7.318;2023-05-10T13:09:59;7;7;
47810;PMS5003;33575;52.600;7.318;2023-05-10T13:12:29;10;9;
47810;PMS5003;33575;52.600;7.318;2023-05-10T13:14:59;9;9;
47810;PMS5003;33575;52.600;7.318;2023-05-10T13:17:31;10;7;
47810;PMS5003;33575;52.600;7.318;2023-05-10T13:20:00;6;6;
47810;PMS5003;33575;52.600;7.318;2023-05-10T13:22:35;4;4;
47810;PMS5003;33575;52.600;7.318;2023-05-10T13:25:01;10;8;
47810;PMS5003;33575;52.600;7.318;2023-05-10T13:27:31;7;7;
47810;PMS5003;33575;52.600;7.318;2023-05-10T13:30:02;8;7;
47810;PMS5003;33575;52.600;7.318;2023-05-10T13:32:32;5;5;
47810;PMS5003;33575;52.600;7.318;2023-05-10T13:35:02;8;7;
47810;PMS5003;33575;52.600;7.318;2023-05-10T13:37:32;8;7;
47810;PMS5003;33575;52.600;7.318;2023-05-10T13:40:03;8;8;
47810;PMS5003;33575;52.600;7.318;2023-05-10T13:42:33;6;6;
47810;PMS5003;33575;52.600;7.318;2023-05-10T13:45:04;8;6;
47810;PMS5003;33575;52.600;7.318;2023-05-10T13:47:34;7;6;
47810;PMS5003;33575;52.600;7.318;2023-05-10T13:50:04;6;5;
47810;PMS5003;33575;52.600;7.318;2023-05-10T13:52:34;7;6;
47810;PMS5003;33575;52.600;7.318;2023-05-10T13:55:05;8;8;
47810;PMS5003;33575;52.600;7.318;2023-05-10T13:57:35;7;7;
47810;PMS5003;33575;52.600;7.318;2023-05-10T14:00:06;7;7;
47810;PMS5003;33575;52.600;7.318;2023-05-10T14:02:35;8;8;
47810;PMS5003;33575;52.600;7.318;2023-05-10T14:05:06;7;6;
47810;PMS5003;33575;52.600;7.318;2023-05-10T14:07:36;9;7;
47810;PMS5003;33575;52.600;7.318;2023-05-10T14:10:07;8;8;
47810;PMS5003;33575;52.600;7.318;2023-05-10T14:12:37;10;9;
47810;PMS5003;33575;52.600;7.318;2023-05-10T14:15:07;7;7;
47810;PMS5003;33575;52.600;7.318;2023-05-10T14:17:37;8;7;
47810;PMS5003;33575;52.600;7.318;2023-05-10T14:20:08;9;8;
47810;PMS5003;33575;52.600;7.318;2023-05-10T14:22:38;8;8;
47810;PMS5003;33575;52.600;7.318;2023-05-10T14:25:08;9;9;
47810;PMS5003;33575;52.600;7.318;2023-05-10T14:27:39;7;6;
47810;PMS5003;33575;52.600;7.318;2023-05-10T14:30:09;9;9;
47810;PMS5003;33575;52.600;7.318;2023-05-10T14:32:39;9;8;
47810;PMS5003;33575;52.600;7.318;2023-05-10T14:35:13;10;9;
47810;PMS5003;33575;52.600;7.318;2023-05-10T14:37:40;8;7;
47810;PMS5003;33575;52.600;7.318;2023-05-10T14:40:10;9;8;
47810;PMS5003;33575;52.600;7.318;2023-05-10T14:42:41;7;6;
47810;PMS5003;33575;52.600;7.318;2023-05-10T14:45:11;9;8;
47810;PMS5003;33575;52.600;7.318;2023-05-10T14:47:42;9;9;
47810;PMS5003;33575;52.600;7.318;2023-05-10T14:50:18;7;6;
47810;PMS5003;33575;52.600;7.318;2023-05-10T14:52:43;10;8;
47810;PMS5003;33575;52.600;7.318;2023-05-10T14:55:14;7;7;
47810;PMS5003;33575;52.600;7.318;2023-05-10T14:57:44;10;9;
47810;PMS5003;33575;52.600;7.318;2023-05-10T15:00:15;8;8;
47810;PMS5003;33575;52.600;7.318;2023-05-10T15:02:45;13;11;
47810;PMS5003;33575;52.600;7.318;2023-05-10T15:05:16;11;11;
47810;PMS5003;33575;52.600;7.318;2023-05-10T15:07:45;11;9;
47810;PMS5003;33575;52.600;7.318;2023-05-10T15:10:16;7;7;
47810;PMS5003;33575;52.600;7.318;2023-05-10T15:12:46;10;8;
47810;PMS5003;33575;52.600;7.318;2023-05-10T15:15:17;8;8;
47810;PMS5003;33575;52.600;7.318;2023-05-10T15:17:47;11;10;
47810;PMS5003;33575;52.600;7.318;2023-05-10T15:20:17;12;12;
47810;PMS5003;33575;52.600;7.318;2023-05-10T15:22:48;13;11;
47810;PMS5003;33575;52.600;7.318;2023-05-10T15:25:19;10;9;
47810;PMS5003;33575;52.600;7.318;2023-05-10T15:27:49;13;13;
47810;PMS5003;33575;52.600;7.318;2023-05-10T15:30:19;15;14;
47810;PMS5003;33575;52.600;7.318;2023-05-10T15:32:49;19;16;
47810;PMS5003;33575;52.600;7.318;2023-05-10T15:35:20;15;14;
47810;PMS5003;33575;52.600;7.318;2023-05-10T15:37:50;17;15;
47810;PMS5003;33575;52.600;7.318;2023-05-10T15:40:20;14;14;
47810;PMS5003;33575;52.600;7.318;2023-05-10T15:42:51;16;15;
47810;PMS5003;33575;52.600;7.318;2023-05-10T15:45:21;11;11;
47810;PMS5003;33575;52.600;7.318;2023-05-10T15:47:52;15;11;
47810;PMS5003;33575;52.600;7.318;2023-05-10T15:50:22;12;11;
47810;PMS5003;33575;52.600;7.318;2023-05-10T15:52:52;11;9;
47810;PMS5003;33575;52.600;7.318;2023-05-10T15:55:22;7;7;
47810;PMS5003;33575;52.600;7.318;2023-05-10T15:57:52;10;10;
47810;PMS5003;33575;52.600;7.318;2023-05-10T16:00:23;8;8;
47810;PMS5003;33575;52.600;7.318;2023-05-10T16:02:53;7;7;
47810;PMS5003;33575;52.600;7.318;2023-05-10T16:05:23;6;6;
47810;PMS5003;33575;52.600;7.318;2023-05-10T16:07:54;7;7;
47810;PMS5003;33575;52.600;7.318;2023-05-10T16:10:24;8;7;
47810;PMS5003;33575;52.600;7.318;2023-05-10T16:12:54;6;6;
47810;PMS5003;33575;52.600;7.318;2023-05-10T16:15:25;6;5;
47810;PMS5003;33575;52.600;7.318;2023-05-10T16:17:55;7;7;
47810;PMS5003;33575;52.600;7.318;2023-05-10T16:20:25;8;7;
47810;PMS5003;33575;52.600;7.318;2023-05-10T16:22:56;8;7;
47810;PMS5003;33575;52.600;7.318;2023-05-10T16:25:26;9;9;
47810;PMS5003;33575;52.600;7.318;2023-05-10T16:27:56;12;11;
47810;PMS5003;33575;52.600;7.318;2023-05-10T16:30:27;10;10;
47810;PMS5003;33575;52.600;7.318;2023-05-10T16:32:58;12;12;
47810;PMS5003;33575;52.600;7.318;2023-05-10T16:35:28;13;12;
47810;PMS5003;33575;52.600;7.318;2023-05-10T16:37:58;14;12;
47810;PMS5003;33575;52.600;7.318;2023-05-10T16:40:28;14;13;
47810;PMS5003;33575;52.600;7.318;2023-05-10T16:42:58;13;13;
47810;PMS5003;33575;52.600;7.318;2023-05-10T16:45:29;18;17;
47810;PMS5003;33575;52.600;7.318;2023-05-10T16:48:00;19;16;
47810;PMS5003;33575;52.600;7.318;2023-05-10T16:50:30;13;12;
47810;PMS5003;33575;52.600;7.318;2023-05-10T16:53:01;14;13;
47810;PMS5003;33575;52.600;7.318;2023-05-10T16:55:32;14;12;
47810;PMS5003;33575;52.600;7.318;2023-05-10T16:58:02;14;12;
47810;PMS5003;33575;52.600;7.318;2023-05-10T17:00:33;14;13;
47810;PMS5003;33575;52.600;7.318;2023-05-10T17:03:04;11;10;
47810;PMS5003;33575;52.600;7.318;2023-05-10T17:05:34;7;7;
47810;PMS5003;33575;52.600;7.318;2023-05-10T17:08:05;8;8;
47810;PMS5003;33575;52.600;7.318;2023-05-10T17:10:35;8;7;
47810;PMS5003;33575;52.600;7.318;2023-05-10T17:13:05;8;7;
47810;PMS5003;33575;52.600;7.318;2023-05-10T17:15:35;9;8;
47810;PMS5003;33575;52.600;7.318;2023-05-10T17:18:06;10;9;